sensor_id;sensor_type;location;lat;lon;timestamp;temperature;humidity
12700;DHT22;6414;49.570;6.060;2023-12-28T00:01:31;7.70;99.90
12700;DHT22;6414;49.570;6.060;2023-12-28T00:04:17;7.70;99.90
12700;DHT22;6414;49.570;6.060;2023-12-28T00:07:04;7.70;99.90
12700;DHT22;6414;49.570;6.060;2023-12-28T00:09:50;7.60;99.90
12700;DHT22;6414;49.570;6.060;2023-12-28T00:12:36;7.50;99.90
12700;DHT22;6414;49.570;6.060;2023-12-28T00:15:23;7.50;99.90
12700;DHT22;6414;49.570;6.060;2023-12-28T00:18:09;7.40;99.90
12700;DHT22;6414;49.570;6.060;2023-12-28T00:20:55;7.40;99.90
12700;DHT22;6414;49.570;6.060;2023-12-28T00:23:42;7.30;99.90
12700;DHT22;6414;49.570;6.060;2023-12-28T00:26:28;7.30;99.90
12700;DHT22;6414;49.570;6.060;2023-12-28T00:29:14;7.20;99.90
12700;DHT22;6414;49.570;6.060;2023-12-28T00:32:01;7.00;99.90
12700;DHT22;6414;49.570;6.060;2023-12-28T00:34:47;7.00;99.90
12700;DHT22;6414;49.570;6.060;2023-12-28T00:37:33;6.90;99.90
12700;DHT22;6414;49.570;6.060;2023-12-28T00:40:19;6.90;99.90
12700;DHT22;6414;49.570;6.060;2023-12-28T00:43:05;6.90;99.90
12700;DHT22;6414;49.570;6.060;2023-12-28T00:45:51;6.80;99.90
12700;DHT22;6414;49.570;6.060;2023-12-28T00:48:37;6.70;99.90
12700;DHT22;6414;49.570;6.060;2023-12-28T00:51:23;6.70;99.90
12700;DHT22;6414;49.570;6.060;2023-12-28T00:54:10;6.70;99.90
12700;DHT22;6414;49.570;6.060;2023-12-28T00:56:56;6.70;99.90
12700;DHT22;6414;49.570;6.060;2023-12-28T00:59:42;6.60;99.90
12700;DHT22;6414;49.570;6.060;2023-12-28T01:02:28;6.50;99.90
12700;DHT22;6414;49.570;6.060;2023-12-28T01:05:14;6.60;99.90
12700;DHT22;6414;49.570;6.060;2023-12-28T01:08:00;6.50;99.90
12700;DHT22;6414;49.570;6.060;2023-12-28T01:10:46;6.50;99.90
12700;DHT22;6414;49.570;6.060;2023-12-28T01:13:32;6.40;99.90
12700;DHT22;6414;49.570;6.060;2023-12-28T01:16:18;6.50;99.90
12700;DHT22;6414;49.570;6.060;2023-12-28T01:19:04;6.50;99.90
12700;DHT22;6414;49.570;6.060;2023-12-28T01:21:50;6.50;99.90
12700;DHT22;6414;49.570;6.060;2023-12-28T01:24:36;6.40;99.90
12700;DHT22;6414;49.570;6.060;2023-12-28T01:27:23;6.50;99.90
12700;DHT22;6414;49.570;6.060;2023-12-28T01:30:09;6.50;99.90
12700;DHT22;6414;49.570;6.060;2023-12-28T01:32:56;6.50;99.90
12700;DHT22;6414;49.570;6.060;2023-12-28T01:35:42;6.50;99.90
12700;DHT22;6414;49.570;6.060;2023-12-28T01:38:28;6.50;99.90
12700;DHT22;6414;49.570;6.060;2023-12-28T01:41:14;6.50;99.90
12700;DHT22;6414;49.570;6.060;2023-12-28T01:44:00;6.50;99.90
12700;DHT22;6414;49.570;6.060;2023-12-28T01:46:46;6.60;99.90
12700;DHT22;6414;49.570;6.060;2023-12-28T01:49:32;6.50;99.90
12700;DHT22;6414;49.570;6.060;2023-12-28T01:52:18;6.60;99.90
12700;DHT22;6414;49.570;6.060;2023-12-28T01:55:04;6.60;99.90
12700;DHT22;6414;49.570;6.060;2023-12-28T01:57:50;6.50;99.90
12700;DHT22;6414;49.570;6.060;2023-12-28T02:00:36;6.50;99.90
12700;DHT22;6414;49.570;6.060;2023-12-28T02:03:22;6.60;99.90
12700;DHT22;6414;49.570;6.060;2023-12-28T02:06:08;6.60;99.90
12700;DHT22;6414;49.570;6.060;2023-12-28T02:08:54;6.60;99.90
12700;DHT22;6414;49.570;6.060;2023-12-28T02:11:40;6.60;99.90
12700;DHT22;6414;49.570;6.060;2023-12-28T02:14:26;6.70;99.90
12700;DHT22;6414;49.570;6.060;2023-12-28T02:19:58;6.70;99.90
12700;DHT22;6414;49.570;6.060;2023-12-28T02:22:43;6.70;99.90
12700;DHT22;6414;49.570;6.060;2023-12-28T02:25:29;6.80;99.90
12700;DHT22;6414;49.570;6.060;2023-12-28T02:28:15;6.80;99.90
12700;DHT22;6414;49.570;6.060;2023-12-28T02:31:02;6.80;99.90
12700;DHT22;6414;49.570;6.060;2023-12-28T02:33:54;6.90;99.90
12700;DHT22;6414;49.570;6.060;2023-12-28T02:36:37;6.90;99.90
12700;DHT22;6414;49.570;6.060;2023-12-28T02:39:23;6.90;99.90
12700;DHT22;6414;49.570;6.060;2023-12-28T02:42:09;7.00;99.90
12700;DHT22;6414;49.570;6.060;2023-12-28T02:44:55;7.00;99.90
12700;DHT22;6414;49.570;6.060;2023-12-28T02:47:41;7.00;99.90
12700;DHT22;6414;49.570;6.060;2023-12-28T02:50:27;7.10;99.90
12700;DHT22;6414;49.570;6.060;2023-12-28T02:53:12;7.10;99.90
12700;DHT22;6414;49.570;6.060;2023-12-28T02:55:59;7.10;99.90
12700;DHT22;6414;49.570;6.060;2023-12-28T02:58:45;7.20;99.90
12700;DHT22;6414;49.570;6.060;2023-12-28T03:01:31;7.10;99.90
12700;DHT22;6414;49.570;6.060;2023-12-28T03:04:18;7.20;99.90
12700;DHT22;6414;49.570;6.060;2023-12-28T03:07:04;7.10;99.90
12700;DHT22;6414;49.570;6.060;2023-12-28T03:09:49;7.20;99.90
12700;DHT22;6414;49.570;6.060;2023-12-28T03:12:35;7.20;99.90
12700;DHT22;6414;49.570;6.060;2023-12-28T03:15:21;7.20;99.90
12700;DHT22;6414;49.570;6.060;2023-12-28T03:18:07;7.20;99.90
12700;DHT22;6414;49.570;6.060;2023-12-28T03:20:53;7.20;99.90
12700;DHT22;6414;49.570;6.060;2023-12-28T03:23:39;7.10;99.90
12700;DHT22;6414;49.570;6.060;2023-12-28T03:26:25;7.10;99.90
12700;DHT22;6414;49.570;6.060;2023-12-28T03:29:11;7.20;99.90
12700;DHT22;6414;49.570;6.060;2023-12-28T03:31:57;7.10;99.90
12700;DHT22;6414;49.570;6.060;2023-12-28T03:34:43;7.10;99.90
12700;DHT22;6414;49.570;6.060;2023-12-28T03:37:29;7.10;99.90
12700;DHT22;6414;49.570;6.060;2023-12-28T03:40:15;7.10;99.90
12700;DHT22;6414;49.570;6.060;2023-12-28T03:43:01;7.20;99.90
12700;DHT22;6414;49.570;6.060;2023-12-28T03:45:47;7.20;99.90
12700;DHT22;6414;49.570;6.060;2023-12-28T03:48:35;7.20;99.90
12700;DHT22;6414;49.570;6.060;2023-12-28T03:51:19;7.20;99.90
12700;DHT22;6414;49.570;6.060;2023-12-28T03:54:06;7.20;99.90
12700;DHT22;6414;49.570;6.060;2023-12-28T03:56:52;7.20;99.90
12700;DHT22;6414;49.570;6.060;2023-12-28T03:59:39;7.20;99.90
12700;DHT22;6414;49.570;6.060;2023-12-28T04:02:24;7.20;99.90
12700;DHT22;6414;49.570;6.060;2023-12-28T04:05:10;7.20;99.90
12700;DHT22;6414;49.570;6.060;2023-12-28T04:07:56;7.20;99.90
12700;DHT22;6414;49.570;6.060;2023-12-28T04:10:42;7.30;99.90
12700;DHT22;6414;49.570;6.060;2023-12-28T04:13:29;7.30;99.90
12700;DHT22;6414;49.570;6.060;2023-12-28T04:16:15;7.30;99.90
12700;DHT22;6414;49.570;6.060;2023-12-28T04:19:01;7.30;99.90
12700;DHT22;6414;49.570;6.060;2023-12-28T04:21:47;7.30;99.90
12700;DHT22;6414;49.570;6.060;2023-12-28T04:24:33;7.40;99.90
12700;DHT22;6414;49.570;6.060;2023-12-28T04:27:19;7.40;99.90
12700;DHT22;6414;49.570;6.060;2023-12-28T04:30:05;7.40;99.90
12700;DHT22;6414;49.570;6.060;2023-12-28T04:32:51;7.40;99.90
12700;DHT22;6414;49.570;6.060;2023-12-28T04:35:37;7.50;99.90
12700;DHT22;6414;49.570;6.060;2023-12-28T04:38:23;7.40;99.90
12700;DHT22;6414;49.570;6.060;2023-12-28T04:41:09;7.50;99.90
12700;DHT22;6414;49.570;6.060;2023-12-28T04:43:55;7.50;99.90
12700;DHT22;6414;49.570;6.060;2023-12-28T04:46:41;7.50;99.90
12700;DHT22;6414;49.570;6.060;2023-12-28T04:49:27;7.50;99.90
12700;DHT22;6414;49.570;6.060;2023-12-28T04:52:13;7.50;99.90
12700;DHT22;6414;49.570;6.060;2023-12-28T04:54:58;7.60;99.90
12700;DHT22;6414;49.570;6.060;2023-12-28T04:57:45;7.60;99.90
12700;DHT22;6414;49.570;6.060;2023-12-28T05:00:31;7.60;99.90
12700;DHT22;6414;49.570;6.060;2023-12-28T05:03:17;7.60;99.90
12700;DHT22;6414;49.570;6.060;2023-12-28T05:06:03;7.60;99.90
12700;DHT22;6414;49.570;6.060;2023-12-28T05:08:50;7.60;99.90
12700;DHT22;6414;49.570;6.060;2023-12-28T05:11:36;7.60;99.90
12700;DHT22;6414;49.570;6.060;2023-12-28T05:14:22;7.50;99.90
12700;DHT22;6414;49.570;6.060;2023-12-28T05:17:08;7.60;99.90
12700;DHT22;6414;49.570;6.060;2023-12-28T05:19:54;7.50;99.90
12700;DHT22;6414;49.570;6.060;2023-12-28T05:22:40;7.60;99.90
12700;DHT22;6414;49.570;6.060;2023-12-28T05:25:26;7.50;99.90
12700;DHT22;6414;49.570;6.060;2023-12-28T05:28:12;7.50;99.90
12700;DHT22;6414;49.570;6.060;2023-12-28T05:30:58;7.50;99.90
12700;DHT22;6414;49.570;6.060;2023-12-28T05:33:46;7.60;99.90
12700;DHT22;6414;49.570;6.060;2023-12-28T05:36:32;7.60;99.90
12700;DHT22;6414;49.570;6.060;2023-12-28T05:39:19;7.60;99.90
12700;DHT22;6414;49.570;6.060;2023-12-28T05:42:05;7.60;99.90
12700;DHT22;6414;49.570;6.060;2023-12-28T05:44:51;7.60;99.90
12700;DHT22;6414;49.570;6.060;2023-12-28T05:47:37;7.70;99.90
12700;DHT22;6414;49.570;6.060;2023-12-28T05:50:23;7.60;99.90
12700;DHT22;6414;49.570;6.060;2023-12-28T05:53:09;7.70;99.90
12700;DHT22;6414;49.570;6.060;2023-12-28T05:55:57;7.70;99.90
12700;DHT22;6414;49.570;6.060;2023-12-28T05:58:43;7.80;99.90
12700;DHT22;6414;49.570;6.060;2023-12-28T06:01:29;7.80;99.90
12700;DHT22;6414;49.570;6.060;2023-12-28T06:04:16;7.80;99.90
12700;DHT22;6414;49.570;6.060;2023-12-28T06:07:05;7.80;99.90
12700;DHT22;6414;49.570;6.060;2023-12-28T06:09:51;7.80;99.90
12700;DHT22;6414;49.570;6.060;2023-12-28T06:12:36;7.80;99.90
12700;DHT22;6414;49.570;6.060;2023-12-28T06:15:23;7.80;99.90
12700;DHT22;6414;49.570;6.060;2023-12-28T06:18:09;7.80;99.90
12700;DHT22;6414;49.570;6.060;2023-12-28T06:20:55;7.80;99.90
12700;DHT22;6414;49.570;6.060;2023-12-28T06:23:40;7.80;99.90
12700;DHT22;6414;49.570;6.060;2023-12-28T06:26:27;7.90;99.90
12700;DHT22;6414;49.570;6.060;2023-12-28T06:29:13;7.90;99.90
12700;DHT22;6414;49.570;6.060;2023-12-28T06:31:59;7.80;99.90
12700;DHT22;6414;49.570;6.060;2023-12-28T06:34:45;7.80;99.90
12700;DHT22;6414;49.570;6.060;2023-12-28T06:37:32;7.90;99.90
12700;DHT22;6414;49.570;6.060;2023-12-28T06:40:18;7.90;99.90
12700;DHT22;6414;49.570;6.060;2023-12-28T06:43:04;7.80;99.90
12700;DHT22;6414;49.570;6.060;2023-12-28T06:45:50;7.90;99.90
12700;DHT22;6414;49.570;6.060;2023-12-28T06:48:36;7.80;99.90
12700;DHT22;6414;49.570;6.060;2023-12-28T06:51:22;7.80;99.90
12700;DHT22;6414;49.570;6.060;2023-12-28T06:54:08;7.90;99.90
12700;DHT22;6414;49.570;6.060;2023-12-28T06:56:54;7.90;99.90
12700;DHT22;6414;49.570;6.060;2023-12-28T06:59:42;7.90;99.90
12700;DHT22;6414;49.570;6.060;2023-12-28T07:02:28;7.90;99.90
12700;DHT22;6414;49.570;6.060;2023-12-28T07:05:15;7.90;99.90
12700;DHT22;6414;49.570;6.060;2023-12-28T07:08:01;7.90;99.90
12700;DHT22;6414;49.570;6.060;2023-12-28T07:10:47;7.90;99.90
12700;DHT22;6414;49.570;6.060;2023-12-28T07:13:34;7.90;99.90
12700;DHT22;6414;49.570;6.060;2023-12-28T07:16:19;7.90;99.90
12700;DHT22;6414;49.570;6.060;2023-12-28T07:19:06;7.90;99.90
12700;DHT22;6414;49.570;6.060;2023-12-28T07:21:52;7.90;99.90
12700;DHT22;6414;49.570;6.060;2023-12-28T07:24:38;7.90;99.90
12700;DHT22;6414;49.570;6.060;2023-12-28T07:27:24;7.90;99.90
12700;DHT22;6414;49.570;6.060;2023-12-28T07:30:11;7.90;99.90
12700;DHT22;6414;49.570;6.060;2023-12-28T07:32:58;7.90;99.90
12700;DHT22;6414;49.570;6.060;2023-12-28T07:35:44;7.90;99.90
12700;DHT22;6414;49.570;6.060;2023-12-28T07:38:30;8.00;99.90
12700;DHT22;6414;49.570;6.060;2023-12-28T07:41:16;8.00;99.90
12700;DHT22;6414;49.570;6.060;2023-12-28T07:44:02;8.00;99.90
12700;DHT22;6414;49.570;6.060;2023-12-28T07:46:48;8.00;99.90
12700;DHT22;6414;49.570;6.060;2023-12-28T07:49:34;8.00;99.90
12700;DHT22;6414;49.570;6.060;2023-12-28T07:52:20;8.00;99.90
12700;DHT22;6414;49.570;6.060;2023-12-28T07:55:07;8.00;99.90
12700;DHT22;6414;49.570;6.060;2023-12-28T07:57:52;8.10;99.90
12700;DHT22;6414;49.570;6.060;2023-12-28T08:00:38;8.00;99.90
12700;DHT22;6414;49.570;6.060;2023-12-28T08:03:24;8.10;99.90
12700;DHT22;6414;49.570;6.060;2023-12-28T08:06:11;8.00;99.90
12700;DHT22;6414;49.570;6.060;2023-12-28T08:08:58;8.10;99.90
12700;DHT22;6414;49.570;6.060;2023-12-28T08:11:44;8.10;99.90
12700;DHT22;6414;49.570;6.060;2023-12-28T08:14:31;8.00;99.90
12700;DHT22;6414;49.570;6.060;2023-12-28T08:17:16;8.10;99.90
12700;DHT22;6414;49.570;6.060;2023-12-28T08:20:04;8.10;99.90
12700;DHT22;6414;49.570;6.060;2023-12-28T08:22:49;8.10;99.90
12700;DHT22;6414;49.570;6.060;2023-12-28T08:25:35;8.00;99.90
12700;DHT22;6414;49.570;6.060;2023-12-28T08:28:22;8.10;99.90
12700;DHT22;6414;49.570;6.060;2023-12-28T08:31:08;8.10;99.90
12700;DHT22;6414;49.570;6.060;2023-12-28T08:33:54;8.10;99.90
12700;DHT22;6414;49.570;6.060;2023-12-28T08:36:39;8.20;99.90
12700;DHT22;6414;49.570;6.060;2023-12-28T08:39:25;8.20;99.90
12700;DHT22;6414;49.570;6.060;2023-12-28T08:42:12;8.20;99.90
12700;DHT22;6414;49.570;6.060;2023-12-28T08:44:57;8.20;99.90
12700;DHT22;6414;49.570;6.060;2023-12-28T08:47:44;8.20;99.90
12700;DHT22;6414;49.570;6.060;2023-12-28T08:50:30;8.20;99.90
12700;DHT22;6414;49.570;6.060;2023-12-28T08:53:16;8.30;99.90
12700;DHT22;6414;49.570;6.060;2023-12-28T08:56:02;8.20;99.90
12700;DHT22;6414;49.570;6.060;2023-12-28T08:58:48;8.20;99.90
12700;DHT22;6414;49.570;6.060;2023-12-28T09:01:34;8.20;99.90
12700;DHT22;6414;49.570;6.060;2023-12-28T09:04:23;8.20;99.90
12700;DHT22;6414;49.570;6.060;2023-12-28T09:07:06;8.30;99.90
12700;DHT22;6414;49.570;6.060;2023-12-28T09:09:52;8.20;99.90
12700;DHT22;6414;49.570;6.060;2023-12-28T09:12:39;8.20;99.90
12700;DHT22;6414;49.570;6.060;2023-12-28T09:15:24;8.20;99.90
12700;DHT22;6414;49.570;6.060;2023-12-28T09:18:10;8.30;99.90
12700;DHT22;6414;49.570;6.060;2023-12-28T09:20:56;8.30;99.90
12700;DHT22;6414;49.570;6.060;2023-12-28T09:23:42;8.30;99.90
12700;DHT22;6414;49.570;6.060;2023-12-28T09:26:28;8.40;99.90
12700;DHT22;6414;49.570;6.060;2023-12-28T09:29:14;8.40;99.90
12700;DHT22;6414;49.570;6.060;2023-12-28T09:32:00;8.40;99.90
12700;DHT22;6414;49.570;6.060;2023-12-28T09:34:46;8.40;99.90
12700;DHT22;6414;49.570;6.060;2023-12-28T09:37:32;8.50;99.90
12700;DHT22;6414;49.570;6.060;2023-12-28T09:40:19;8.70;99.90
12700;DHT22;6414;49.570;6.060;2023-12-28T09:43:26;8.70;99.90
12700;DHT22;6414;49.570;6.060;2023-12-28T09:46:12;8.70;99.90
12700;DHT22;6414;49.570;6.060;2023-12-28T09:48:58;8.80;99.90
12700;DHT22;6414;49.570;6.060;2023-12-28T09:51:43;9.10;99.90
12700;DHT22;6414;49.570;6.060;2023-12-28T09:54:29;9.10;99.90
12700;DHT22;6414;49.570;6.060;2023-12-28T09:57:15;9.30;99.90
12700;DHT22;6414;49.570;6.060;2023-12-28T10:00:01;9.10;99.90
12700;DHT22;6414;49.570;6.060;2023-12-28T10:02:47;9.00;99.90
12700;DHT22;6414;49.570;6.060;2023-12-28T10:05:33;9.00;99.90
12700;DHT22;6414;49.570;6.060;2023-12-28T10:08:19;9.00;99.90
12700;DHT22;6414;49.570;6.060;2023-12-28T10:11:05;9.00;99.90
12700;DHT22;6414;49.570;6.060;2023-12-28T10:13:53;9.00;99.90
12700;DHT22;6414;49.570;6.060;2023-12-28T10:16:42;9.00;99.90
12700;DHT22;6414;49.570;6.060;2023-12-28T10:19:28;9.10;99.90
12700;DHT22;6414;49.570;6.060;2023-12-28T10:22:14;9.00;99.90
12700;DHT22;6414;49.570;6.060;2023-12-28T10:25:01;9.00;99.90
12700;DHT22;6414;49.570;6.060;2023-12-28T10:27:49;8.90;99.90
12700;DHT22;6414;49.570;6.060;2023-12-28T10:30:32;8.80;99.90
12700;DHT22;6414;49.570;6.060;2023-12-28T10:33:18;8.80;99.90
12700;DHT22;6414;49.570;6.060;2023-12-28T10:36:08;8.80;99.90
12700;DHT22;6414;49.570;6.060;2023-12-28T10:38:53;8.80;99.90
12700;DHT22;6414;49.570;6.060;2023-12-28T10:41:40;8.90;99.90
12700;DHT22;6414;49.570;6.060;2023-12-28T10:44:26;9.00;99.90
12700;DHT22;6414;49.570;6.060;2023-12-28T10:47:14;9.10;99.90
12700;DHT22;6414;49.570;6.060;2023-12-28T10:49:58;9.10;99.90
12700;DHT22;6414;49.570;6.060;2023-12-28T10:52:44;9.10;99.90
12700;DHT22;6414;49.570;6.060;2023-12-28T10:55:33;9.20;99.90
12700;DHT22;6414;49.570;6.060;2023-12-28T11:01:06;9.40;99.90
12700;DHT22;6414;49.570;6.060;2023-12-28T11:03:53;9.30;99.90
12700;DHT22;6414;49.570;6.060;2023-12-28T11:06:38;9.30;99.90
12700;DHT22;6414;49.570;6.060;2023-12-28T11:09:25;9.30;99.90
12700;DHT22;6414;49.570;6.060;2023-12-28T11:12:11;9.30;99.90
12700;DHT22;6414;49.570;6.060;2023-12-28T11:14:57;9.30;99.90
12700;DHT22;6414;49.570;6.060;2023-12-28T11:17:43;9.30;99.90
12700;DHT22;6414;49.570;6.060;2023-12-28T11:20:30;9.20;99.90
12700;DHT22;6414;49.570;6.060;2023-12-28T11:23:16;9.20;99.90
12700;DHT22;6414;49.570;6.060;2023-12-28T11:26:02;9.20;99.90
12700;DHT22;6414;49.570;6.060;2023-12-28T11:28:49;9.20;99.90
12700;DHT22;6414;49.570;6.060;2023-12-28T11:31:35;9.20;99.90
12700;DHT22;6414;49.570;6.060;2023-12-28T11:34:31;9.30;99.90
12700;DHT22;6414;49.570;6.060;2023-12-28T11:37:17;9.30;99.90
12700;DHT22;6414;49.570;6.060;2023-12-28T11:40:12;9.30;99.90
12700;DHT22;6414;49.570;6.060;2023-12-28T11:42:57;9.40;99.90
12700;DHT22;6414;49.570;6.060;2023-12-28T11:45:47;9.40;99.90
12700;DHT22;6414;49.570;6.060;2023-12-28T11:48:33;9.40;99.90
12700;DHT22;6414;49.570;6.060;2023-12-28T11:51:20;9.40;99.90
12700;DHT22;6414;49.570;6.060;2023-12-28T11:54:06;9.40;99.90
12700;DHT22;6414;49.570;6.060;2023-12-28T11:56:52;9.40;99.90
12700;DHT22;6414;49.570;6.060;2023-12-28T11:59:39;9.50;99.90
12700;DHT22;6414;49.570;6.060;2023-12-28T12:02:25;9.50;99.90
12700;DHT22;6414;49.570;6.060;2023-12-28T12:05:10;9.40;99.90
12700;DHT22;6414;49.570;6.060;2023-12-28T12:07:56;9.30;99.90
12700;DHT22;6414;49.570;6.060;2023-12-28T12:10:43;9.30;99.90
12700;DHT22;6414;49.570;6.060;2023-12-28T12:13:29;9.30;99.90
12700;DHT22;6414;49.570;6.060;2023-12-28T12:16:15;9.30;99.90
12700;DHT22;6414;49.570;6.060;2023-12-28T12:19:01;9.40;99.90
12700;DHT22;6414;49.570;6.060;2023-12-28T12:21:47;9.50;99.90
12700;DHT22;6414;49.570;6.060;2023-12-28T12:24:33;9.60;99.90
12700;DHT22;6414;49.570;6.060;2023-12-28T12:27:20;9.50;99.90
12700;DHT22;6414;49.570;6.060;2023-12-28T12:30:07;9.50;99.90
12700;DHT22;6414;49.570;6.060;2023-12-28T12:32:53;9.50;99.90
12700;DHT22;6414;49.570;6.060;2023-12-28T12:35:39;9.50;99.90
12700;DHT22;6414;49.570;6.060;2023-12-28T12:38:25;9.50;99.90
12700;DHT22;6414;49.570;6.060;2023-12-28T12:41:11;9.50;99.90
12700;DHT22;6414;49.570;6.060;2023-12-28T12:43:57;9.50;99.90
12700;DHT22;6414;49.570;6.060;2023-12-28T12:46:43;9.50;99.90
12700;DHT22;6414;49.570;6.060;2023-12-28T12:49:30;9.30;99.90
12700;DHT22;6414;49.570;6.060;2023-12-28T12:52:16;9.20;99.90
12700;DHT22;6414;49.570;6.060;2023-12-28T12:55:02;9.30;99.90
12700;DHT22;6414;49.570;6.060;2023-12-28T12:57:48;9.20;99.90
12700;DHT22;6414;49.570;6.060;2023-12-28T13:00:34;9.10;99.90
12700;DHT22;6414;49.570;6.060;2023-12-28T13:03:20;9.20;99.90
12700;DHT22;6414;49.570;6.060;2023-12-28T13:06:06;9.30;99.90
12700;DHT22;6414;49.570;6.060;2023-12-28T13:08:53;9.20;99.90
12700;DHT22;6414;49.570;6.060;2023-12-28T13:11:39;9.20;99.90
12700;DHT22;6414;49.570;6.060;2023-12-28T13:14:25;9.10;99.90
12700;DHT22;6414;49.570;6.060;2023-12-28T13:17:11;9.00;99.90
12700;DHT22;6414;49.570;6.060;2023-12-28T13:19:57;9.00;99.90
12700;DHT22;6414;49.570;6.060;2023-12-28T13:22:43;9.10;99.90
12700;DHT22;6414;49.570;6.060;2023-12-28T13:25:29;9.10;99.90
12700;DHT22;6414;49.570;6.060;2023-12-28T13:28:15;9.20;99.90
12700;DHT22;6414;49.570;6.060;2023-12-28T13:31:01;9.20;99.90
12700;DHT22;6414;49.570;6.060;2023-12-28T13:33:47;9.30;99.90
12700;DHT22;6414;49.570;6.060;2023-12-28T13:36:33;9.20;99.90
12700;DHT22;6414;49.570;6.060;2023-12-28T13:39:19;9.20;99.90
12700;DHT22;6414;49.570;6.060;2023-12-28T13:42:06;9.10;99.90
12700;DHT22;6414;49.570;6.060;2023-12-28T13:44:51;9.00;99.90
12700;DHT22;6414;49.570;6.060;2023-12-28T13:47:38;9.00;99.90
12700;DHT22;6414;49.570;6.060;2023-12-28T13:50:24;8.90;99.90
12700;DHT22;6414;49.570;6.060;2023-12-28T13:53:10;8.90;99.90
12700;DHT22;6414;49.570;6.060;2023-12-28T13:55:56;8.80;99.90
12700;DHT22;6414;49.570;6.060;2023-12-28T13:58:42;8.70;99.90
12700;DHT22;6414;49.570;6.060;2023-12-28T14:01:28;8.70;99.90
12700;DHT22;6414;49.570;6.060;2023-12-28T14:04:14;8.80;99.90
12700;DHT22;6414;49.570;6.060;2023-12-28T14:07:01;8.80;99.90
12700;DHT22;6414;49.570;6.060;2023-12-28T14:09:47;8.70;99.90
12700;DHT22;6414;49.570;6.060;2023-12-28T14:12:33;8.70;99.90
12700;DHT22;6414;49.570;6.060;2023-12-28T14:15:19;8.60;99.90
12700;DHT22;6414;49.570;6.060;2023-12-28T14:18:04;8.70;99.90
12700;DHT22;6414;49.570;6.060;2023-12-28T14:20:51;8.70;99.90
12700;DHT22;6414;49.570;6.060;2023-12-28T14:23:38;8.70;99.90
12700;DHT22;6414;49.570;6.060;2023-12-28T14:26:23;8.70;99.90
12700;DHT22;6414;49.570;6.060;2023-12-28T14:29:09;8.60;99.90
12700;DHT22;6414;49.570;6.060;2023-12-28T14:31:55;8.60;99.90
12700;DHT22;6414;49.570;6.060;2023-12-28T14:34:42;8.70;99.90
12700;DHT22;6414;49.570;6.060;2023-12-28T14:37:27;8.70;99.90
12700;DHT22;6414;49.570;6.060;2023-12-28T14:40:13;8.70;99.90
12700;DHT22;6414;49.570;6.060;2023-12-28T14:42:59;8.60;99.90
12700;DHT22;6414;49.570;6.060;2023-12-28T14:45:45;8.60;99.90
12700;DHT22;6414;49.570;6.060;2023-12-28T14:48:31;8.50;99.90
12700;DHT22;6414;49.570;6.060;2023-12-28T14:51:18;8.50;99.90
12700;DHT22;6414;49.570;6.060;2023-12-28T14:54:04;8.60;99.90
12700;DHT22;6414;49.570;6.060;2023-12-28T14:56:50;8.60;99.90
12700;DHT22;6414;49.570;6.060;2023-12-28T14:59:36;8.70;99.90
12700;DHT22;6414;49.570;6.060;2023-12-28T15:02:22;8.70;99.90
12700;DHT22;6414;49.570;6.060;2023-12-28T15:05:08;8.70;99.90
12700;DHT22;6414;49.570;6.060;2023-12-28T15:07:54;8.70;99.90
12700;DHT22;6414;49.570;6.060;2023-12-28T15:10:40;8.70;99.90
12700;DHT22;6414;49.570;6.060;2023-12-28T15:13:26;8.60;99.90
12700;DHT22;6414;49.570;6.060;2023-12-28T15:16:12;8.50;99.90
12700;DHT22;6414;49.570;6.060;2023-12-28T15:18:58;8.50;99.90
12700;DHT22;6414;49.570;6.060;2023-12-28T15:21:44;8.50;99.90
12700;DHT22;6414;49.570;6.060;2023-12-28T15:24:30;8.40;99.90
12700;DHT22;6414;49.570;6.060;2023-12-28T15:27:15;8.40;99.90
12700;DHT22;6414;49.570;6.060;2023-12-28T15:30:01;8.40;99.90
12700;DHT22;6414;49.570;6.060;2023-12-28T15:32:46;8.40;99.90
12700;DHT22;6414;49.570;6.060;2023-12-28T15:35:32;8.40;99.90
12700;DHT22;6414;49.570;6.060;2023-12-28T15:38:19;8.50;99.90
12700;DHT22;6414;49.570;6.060;2023-12-28T15:41:05;8.40;99.90
12700;DHT22;6414;49.570;6.060;2023-12-28T15:43:52;8.40;99.90
12700;DHT22;6414;49.570;6.060;2023-12-28T15:46:38;8.40;99.90
12700;DHT22;6414;49.570;6.060;2023-12-28T15:49:24;8.40;99.90
12700;DHT22;6414;49.570;6.060;2023-12-28T15:52:10;8.40;99.90
12700;DHT22;6414;49.570;6.060;2023-12-28T15:54:56;8.40;99.90
12700;DHT22;6414;49.570;6.060;2023-12-28T15:57:42;8.30;99.90
12700;DHT22;6414;49.570;6.060;2023-12-28T16:00:28;8.20;99.90
12700;DHT22;6414;49.570;6.060;2023-12-28T16:03:14;8.20;99.90
12700;DHT22;6414;49.570;6.060;2023-12-28T16:06:01;8.10;99.90
12700;DHT22;6414;49.570;6.060;2023-12-28T16:08:47;8.20;99.90
12700;DHT22;6414;49.570;6.060;2023-12-28T16:11:32;8.10;99.90
12700;DHT22;6414;49.570;6.060;2023-12-28T16:14:18;8.10;99.90
12700;DHT22;6414;49.570;6.060;2023-12-28T16:17:04;8.10;99.90
12700;DHT22;6414;49.570;6.060;2023-12-28T16:19:50;8.10;99.90
12700;DHT22;6414;49.570;6.060;2023-12-28T16:22:36;8.10;99.90
12700;DHT22;6414;49.570;6.060;2023-12-28T16:25:22;8.20;99.90
12700;DHT22;6414;49.570;6.060;2023-12-28T16:28:08;8.10;99.90
12700;DHT22;6414;49.570;6.060;2023-12-28T16:30:54;8.10;99.90
12700;DHT22;6414;49.570;6.060;2023-12-28T16:33:41;8.10;99.90
12700;DHT22;6414;49.570;6.060;2023-12-28T16:36:27;8.10;99.90
12700;DHT22;6414;49.570;6.060;2023-12-28T16:39:13;8.00;99.90
12700;DHT22;6414;49.570;6.060;2023-12-28T16:41:59;8.00;99.90
12700;DHT22;6414;49.570;6.060;2023-12-28T16:44:45;8.00;99.90
12700;DHT22;6414;49.570;6.060;2023-12-28T16:47:31;8.00;99.90
12700;DHT22;6414;49.570;6.060;2023-12-28T16:50:17;7.90;99.90
12700;DHT22;6414;49.570;6.060;2023-12-28T16:53:03;7.90;99.90
12700;DHT22;6414;49.570;6.060;2023-12-28T16:55:49;7.90;99.90
12700;DHT22;6414;49.570;6.060;2023-12-28T16:58:35;7.90;99.90
12700;DHT22;6414;49.570;6.060;2023-12-28T17:01:22;8.00;99.90
12700;DHT22;6414;49.570;6.060;2023-12-28T17:04:08;8.00;99.90
12700;DHT22;6414;49.570;6.060;2023-12-28T17:06:54;8.00;99.90
12700;DHT22;6414;49.570;6.060;2023-12-28T17:09:40;8.00;99.90
12700;DHT22;6414;49.570;6.060;2023-12-28T17:12:30;8.00;99.90
12700;DHT22;6414;49.570;6.060;2023-12-28T17:15:13;8.00;99.90
12700;DHT22;6414;49.570;6.060;2023-12-28T17:17:59;8.10;99.90
12700;DHT22;6414;49.570;6.060;2023-12-28T17:20:45;8.10;99.90
12700;DHT22;6414;49.570;6.060;2023-12-28T17:23:37;8.00;99.90
12700;DHT22;6414;49.570;6.060;2023-12-28T17:26:26;8.00;99.90
12700;DHT22;6414;49.570;6.060;2023-12-28T17:29:11;8.00;99.90
12700;DHT22;6414;49.570;6.060;2023-12-28T17:31:57;8.00;99.90
12700;DHT22;6414;49.570;6.060;2023-12-28T17:34:43;8.00;99.90
12700;DHT22;6414;49.570;6.060;2023-12-28T17:37:30;8.00;99.90
12700;DHT22;6414;49.570;6.060;2023-12-28T17:40:17;8.00;99.90
12700;DHT22;6414;49.570;6.060;2023-12-28T17:43:22;8.00;99.90
12700;DHT22;6414;49.570;6.060;2023-12-28T17:46:14;8.00;99.90
12700;DHT22;6414;49.570;6.060;2023-12-28T17:48:57;7.90;99.90
12700;DHT22;6414;49.570;6.060;2023-12-28T17:51:42;8.00;99.90
12700;DHT22;6414;49.570;6.060;2023-12-28T17:54:28;8.00;99.90
12700;DHT22;6414;49.570;6.060;2023-12-28T17:57:14;8.00;99.90
12700;DHT22;6414;49.570;6.060;2023-12-28T18:00:00;8.00;99.90
12700;DHT22;6414;49.570;6.060;2023-12-28T18:02:46;7.90;99.90
12700;DHT22;6414;49.570;6.060;2023-12-28T18:05:32;7.90;99.90
12700;DHT22;6414;49.570;6.060;2023-12-28T18:08:19;8.00;99.90
12700;DHT22;6414;49.570;6.060;2023-12-28T18:11:07;8.00;99.90